Latest Weather Observations for Marree Airport

IDS60801

Issued at 6:01 pm CST Wednesday 28 June 2017 (issued every 30 minutes, with the page automatically refreshed every 10 minutes)

About weather observations | Map of weather stations | Latest weather observations for SA | Other Formats
Station Details ID: 017126 Name: MARREE AERO Lat: -29.66 Lon: 138.07 Height: 50.0 m
Data from the previous 72 hours. | See also: Recent months at Marree Airport
Date/Time
CST
Temp
°C
App
Temp
°C
Dew
Point
°C
Rel
Hum
%
Delta-T
°C
Wind Press
QNH
hPa
Press
MSL
hPa
Rain since
9am
mm
Dir  Spd
km/h
Gust
km/h
Spd
kts
Gust
kts
28/06:00pm 13.0 10.4 9.4 79 1.8 SW 13 15 7 8 1023.8 1023.8 0.0
28/05:30pm 14.6 11.4 8.3 66 3.2 SSW 15 19 8 10 1023.6 1023.6 0.0
28/05:00pm 15.9 12.4 8.9 63 3.6 SSW 17 22 9 12 1023.3 1023.3 0.0
28/04:30pm 16.2 12.5 9.6 65 3.4 SSW 19 24 10 13 1023.2 1023.2 0.0
28/04:00pm 16.1 12.7 10.4 69 3.0 SSW 19 24 10 13 1023.1 1023.1 0.0
28/03:30pm 15.9 12.3 10.4 70 2.9 SSW 20 26 11 14 1023.0 1023.0 0.0
28/03:00pm 15.6 12.1 11.0 74 2.4 SSW 20 26 11 14 1022.8 1022.8 0.0
28/02:30pm 15.3 13.1 12.1 81 1.7 SSW 15 19 8 10 1022.7 1022.7 0.0
28/02:00pm 14.8 13.2 12.7 87 1.2 S 13 17 7 9 1022.8 1022.8 0.0
28/01:30pm 14.6 12.4 12.1 85 1.4 S 15 20 8 11 1022.9 1022.9 0.0
28/01:00pm 15.1 13.4 13.6 91 0.8 SSW 15 19 8 10 1023.2 1023.2 0.0
28/12:30pm 14.3 12.7 12.9 91 0.8 SW 13 15 7 8 1023.7 1023.7 0.0
28/12:00pm 13.7 12.1 12.9 95 0.4 SW 13 17 7 9 1024.0 1024.0 0.0
28/11:30am 13.2 12.2 12.4 95 0.4 W 9 15 5 8 1024.3 1024.4 0.0
28/11:00am 13.1 12.6 12.5 96 0.3 W 7 9 4 5 1024.5 1024.6 0.0
28/10:30am 12.7 12.2 12.1 96 0.3 S 6 7 3 4 1024.4 1024.5 0.0
28/10:00am 12.6 11.9 12.0 96 0.3 S 7 9 4 5 1024.4 1024.5 0.0
28/09:30am 12.3 11.1 11.7 96 0.3 SSE 9 13 5 7 1024.3 1024.4 0.0
28/09:00am 12.1 10.1 11.6 97 0.3 S 13 17 7 9 1023.9 1023.9 2.6
28/08:30am 11.6 9.2 11.3 98 0.2 SSW 15 19 8 10 1023.7 1023.7 2.6
28/08:00am 11.7 8.9 11.4 98 0.2 SSW 17 20 9 11 1023.4 1023.4 2.6
28/07:30am 11.7 8.9 11.4 98 0.2 W 17 22 9 12 1023.3 1023.3 2.6
28/07:00am 11.9 10.7 11.6 98 0.2 W 9 11 5 6 1023.1 1023.1 2.6
28/06:30am 12.0 11.4 11.7 98 0.2 SSW 6 7 3 4 1022.8 1022.8 2.6
28/06:00am 11.9 11.3 11.7 99 0.1 N 6 7 3 4 1022.4 1022.4 2.6
28/05:30am 11.9 11.7 11.7 99 0.1 N 4 6 2 3 1022.1 1022.1 2.6
28/05:00am 11.9 11.1 11.7 99 0.1 E 7 9 4 5 1021.8 1021.8 2.6
28/04:30am 12.0 10.9 11.8 99 0.1 ESE 9 11 5 6 1021.9 1021.9 2.6
28/04:00am 12.0 11.2 11.8 99 0.1 E 7 9 4 5 1021.8 1021.8 2.6
28/03:30am 11.9 11.1 11.7 99 0.1 E 7 9 4 5 1022.0 1022.0 2.6
28/03:00am 11.9 10.7 11.7 99 0.1 ESE 9 11 5 6 1022.1 1022.1 2.6
28/02:30am 11.9 10.3 11.7 99 0.1 SSE 11 13 6 7 1022.1 1022.1 2.6
28/02:00am 12.0 10.1 11.8 99 0.1 ENE 13 15 7 8 1022.3 1022.3 2.6
28/01:30am 11.9 10.3 11.7 99 0.1 SE 11 15 6 8 1022.4 1022.4 2.6
28/01:00am 11.9 10.3 11.7 99 0.1 N 11 13 6 7 1022.4 1022.4 2.6
28/12:30am 11.8 10.2 11.6 99 0.1 N 11 13 6 7 1022.6 1022.6 2.6
28/12:00am 11.9 10.0 11.7 99 0.1 NNE 13 17 7 9 1022.8 1022.8 2.6
 
Date/Time
CST
Temp
°C
App
Temp
°C
Dew
Point
°C
Rel
Hum
%
Delta-T
°C
Wind Press
QNH
hPa
Press
MSL
hPa
Rain since
9am
mm
Dir  Spd
km/h
Gust
km/h
Spd
kts
Gust
kts
27/11:30pm 11.8 9.4 11.5 98 0.2 NNE 15 17 8 9 1022.8 1022.8 2.6
27/11:00pm 12.0 10.1 11.7 98 0.2 NNE 13 17 7 9 1023.3 1023.3 2.6
27/10:30pm 12.1 9.8 11.8 98 0.2 NE 15 19 8 10 1023.3 1023.3 2.2
27/10:00pm 12.2 10.3 11.9 98 0.2 NNE 13 20 7 11 1023.6 1023.6 2.2
27/09:30pm 12.3 9.7 12.0 98 0.2 NNE 17 20 9 11 1023.4 1023.4 2.0
27/09:00pm 12.7 10.6 12.4 98 0.2 E 15 20 8 11 1023.4 1023.4 1.8
27/08:30pm 12.9 11.2 12.4 97 0.3 ESE 13 17 7 9 1023.6 1023.6 1.4
27/08:00pm 13.1 11.4 12.6 97 0.3 SE 13 15 7 8 1023.5 1023.5 0.8
27/07:30pm 13.4 13.6 12.9 97 0.3 NW 4 13 2 7 1022.9 1022.9 0.8
27/07:00pm 13.8 13.7 13.3 97 0.3 NW 6 9 3 5 1023.1 1023.1 0.8
27/06:30pm 14.0 13.4 13.5 97 0.3 NNW 9 11 5 6 1022.9 1022.9 0.6
27/06:00pm 14.2 12.9 13.6 96 0.3 NNW 13 17 7 9 1022.7 1022.7 0.6
27/05:30pm 15.3 15.6 14.5 95 0.5 S 6 7 3 4 1022.5 1022.5 0.2
27/05:00pm 15.8 15.2 12.4 80 1.9 S 7 9 4 5 1022.2 1022.2 0.0
27/04:30pm 16.1 15.1 12.3 78 2.1 NNW 9 11 5 6 1022.3 1022.3 0.0
27/04:00pm 16.4 15.8 11.8 74 2.5 NW 6 7 3 4 1022.1 1022.1 0.0
27/03:30pm 16.5 16.1 11.2 71 2.8 ESE 4 11 2 6 1021.9 1021.9 0.0
27/03:00pm 16.9 16.0 10.7 67 3.3 N 6 9 3 5 1021.4 1021.4 0.0
27/02:30pm 16.7 15.5 10.3 66 3.4 E 7 9 4 5 1021.3 1021.3 0.0
27/02:00pm 16.9 15.4 10.7 67 3.3 ENE 9 15 5 8 1021.9 1021.9 0.0
27/01:30pm 16.5 14.7 11.0 70 2.9 ESE 11 17 6 9 1021.8 1021.8 0.0
27/01:00pm 16.2 14.0 10.9 71 2.8 E 13 20 7 11 1022.0 1022.0 0.0
27/12:30pm 15.9 14.1 12.1 78 2.1 ENE 13 19 7 10 1022.5 1022.5 0.0
27/12:00pm 15.5 13.6 11.9 79 1.9 NE 13 20 7 11 1023.0 1023.0 0.0
27/11:30am 14.8 12.3 12.3 85 1.4 NNE 17 20 9 11 1023.4 1023.4 0.0
27/11:00am 13.9 11.3 12.1 89 1.0 NNE 17 22 9 12 1024.0 1024.0 0.0
27/10:30am 13.5 11.0 12.2 92 0.7 ENE 17 22 9 12 1024.4 1024.5 0.0
27/10:00am 12.9 10.7 12.1 95 0.4 NNE 15 19 8 10 1024.7 1024.8 0.0
27/09:30am 11.9 9.0 11.1 95 0.4 ENE 17 20 9 11 1024.4 1024.5 0.0
27/09:00am 11.5 9.3 10.9 96 0.3 ENE 13 17 7 9 1024.6 1024.7 4.8
27/08:30am 11.6 8.7 11.1 97 0.3 NNE 17 20 9 11 1023.8 1023.8 4.8
27/08:00am 10.5 8.1 10.0 97 0.3 NE 13 15 7 8 1023.9 1023.9 4.8
27/07:30am 10.3 7.8 9.8 97 0.3 NNE 13 15 7 8 1023.7 1023.7 4.8
27/07:00am 10.3 8.2 9.8 97 0.3 NE 11 15 6 8 1023.9 1023.9 4.8
27/06:30am 10.2 8.8 9.7 97 0.2 NNE 7 11 4 6 1024.0 1024.0 4.8
27/06:00am 10.2 7.3 9.7 97 0.3 ENE 15 17 8 9 1023.4 1023.4 4.8
27/05:30am 10.2 8.1 9.7 97 0.3 NE 11 13 6 7 1023.5 1023.5 4.8
27/05:00am 10.3 8.2 9.8 97 0.3 ESE 11 13 6 7 1023.8 1023.8 4.4
27/04:30am 10.4 8.0 9.9 97 0.3 NE 13 15 7 8 1023.7 1023.7 4.4
27/04:00am 10.5 8.1 10.0 97 0.3 N 13 17 7 9 1023.8 1023.8 4.4
27/03:30am 10.7 9.5 10.2 97 0.3 SE 7 9 4 5 1024.0 1024.0 4.2
27/03:00am 10.7 9.7 10.2 97 0.3 N 6 7 3 4 1024.0 1024.0 4.2
27/02:30am 10.8 9.8 10.3 97 0.3 NNE 6 7 3 4 1023.9 1023.9 4.0
27/02:00am 10.7 8.7 10.1 96 0.3 SE 11 13 6 7 1023.8 1023.8 4.0
27/01:30am 10.7 8.3 10.1 96 0.3 E 13 15 7 8 1023.7 1023.7 4.0
27/01:00am 10.7 8.3 10.1 96 0.3 ESE 13 15 7 8 1023.8 1023.8 4.0
27/12:30am 11.0 8.7 10.4 96 0.3 S 13 17 7 9 1024.3 1024.4 3.8
27/12:00am 11.2 9.4 10.7 97 0.3 SW 11 11 6 6 1024.9 1025.0 3.8
 
Date/Time
CST
Temp
°C
App
Temp
°C
Dew
Point
°C
Rel
Hum
%
Delta-T
°C
Wind Press
QNH
hPa
Press
MSL
hPa
Rain since
9am
mm
Dir  Spd
km/h
Gust
km/h
Spd
kts
Gust
kts
26/11:30pm 11.4 10.4 10.9 97 0.3 SW 7 9 4 5 1025.2 1025.3 3.6
26/11:00pm 11.5 11.5 11.0 97 0.3 SW 2 7 1 4 1025.5 1025.6 3.0
26/10:30pm 11.6 11.9 11.0 96 0.3 CALM 0 0 0 0 1025.4 1025.5 2.8
26/10:00pm 11.7 10.9 11.1 96 0.3 SSW 6 7 3 4 1025.4 1025.5 2.6
26/09:30pm 11.9 10.2 11.3 96 0.3 NNW 11 15 6 8 1025.2 1025.3 2.4
26/09:00pm 11.9 10.6 11.3 96 0.3 N 9 11 5 6 1025.6 1025.7 2.2
26/08:30pm 12.2 10.9 11.4 95 0.4 NW 9 11 5 6 1025.4 1025.5 1.8
26/08:00pm 12.5 11.9 11.7 95 0.4 WNW 6 7 3 4 1025.2 1025.3 1.0
26/07:30pm 12.8 11.7 11.9 94 0.5 NNW 9 9 5 5 1025.1 1025.2 0.4
26/07:00pm 13.2 11.3 10.6 84 1.4 NNW 11 13 6 7 1025.4 1025.5 0.2
26/06:30pm 14.2 11.7 8.4 68 2.9 NW 11 13 6 7 1025.0 1025.1 0.0
26/06:00pm 14.9 12.8 6.7 58 4.0 NNW 7 9 4 5 1024.4 1024.5 0.0
26/05:30pm 15.8 13.1 5.4 50 4.9 N 9 9 5 5 1024.0 1024.0 0.0
26/05:00pm 16.4 13.4 4.1 44 5.7 N 9 11 5 6 1024.0 1024.0 0.0
26/04:30pm 16.6 13.1 3.7 42 6.0 N 11 11 6 6 1024.1 1024.1 0.0
26/04:00pm 16.5 13.9 4.2 44 5.8 NNW 7 9 4 5 1023.8 1023.8 0.0
26/03:30pm 16.8 14.6 3.1 40 6.3 NE 4 9 2 5 1023.3 1023.3 0.0
26/03:00pm 17.1 14.5 3.4 40 6.3 ENE 6 11 3 6 1023.1 1023.1 0.0
26/02:30pm 17.3 14.8 3.6 40 6.4 NNE 6 9 3 5 1023.0 1023.0 0.0
26/02:00pm 17.0 14.4 3.0 39 6.4 NE 6 11 3 6 1023.3 1023.3 0.0
26/01:30pm 16.7 14.0 3.7 42 6.0 N 7 13 4 7 1023.8 1023.8 0.0
26/01:00pm 17.4 16.1 4.0 41 6.3 CALM 0 6 0 3 1024.1 1024.1 0.0
26/12:30pm 16.4 14.0 4.1 44 5.7 N 6 7 3 4 1024.9 1025.0 0.0
26/12:00pm 16.1 13.1 4.2 45 5.5 NNE 9 13 5 7 1025.1 1025.2 0.0
26/11:30am 16.1 12.7 3.9 44 5.6 NNE 11 17 6 9 1025.3 1025.4 0.0
26/11:00am 16.1 12.3 3.9 44 5.7 N 13 20 7 11 1025.3 1025.4 0.0
26/10:30am 15.2 10.7 4.3 48 5.0 N 17 20 9 11 1025.3 1025.4 0.0
26/10:00am 14.4 11.1 4.4 51 4.6 NE 11 15 6 8 1025.6 1025.7 0.0
26/09:30am 13.2 9.1 4.4 55 4.0 NNE 15 19 8 10 1025.2 1025.3 0.0
26/09:00am 12.0 8.9 5.6 65 3.0 N 11 15 6 8 1025.1 1025.2 0.0
26/08:30am 10.9 8.3 6.1 72 2.2 N 9 15 5 8 1025.1 1025.2 0.0
26/08:00am 10.7 7.8 6.5 75 2.0 S 11 13 6 7 1025.0 1025.1 0.0
26/07:30am 10.2 6.8 5.8 74 2.0 SSE 13 15 7 8 1024.6 1024.7 0.0
26/07:00am 9.8 7.3 6.5 80 1.5 N 9 11 5 6 1024.1 1024.1 0.0
26/06:30am 10.1 8.4 5.9 75 1.9 S 4 7 2 4 1024.0 1024.0 0.0
26/06:00am 9.9 6.6 6.4 79 1.6 S 13 15 7 8 1023.4 1023.4 0.0
26/05:30am 10.1 7.8 7.3 83 1.3 N 9 11 5 6 1023.0 1023.0 0.0
26/05:00am 10.8 8.1 7.3 79 1.7 SE 11 13 6 7 1023.1 1023.1 0.0
26/04:30am 11.0 8.4 7.7 80 1.6 SSE 11 13 6 7 1023.1 1023.1 0.0
26/04:00am 10.8 8.7 9.6 92 0.6 SSE 11 13 6 7 1022.9 1022.9 0.0
26/03:30am 10.5 8.4 9.6 94 0.5 N 11 13 6 7 1023.1 1023.1 0.0
26/03:00am 11.2 9.6 10.1 93 0.6 NE 9 11 5 6 1023.0 1023.0 0.0
26/02:30am 11.3 10.2 10.0 92 0.7 E 6 7 3 4 1023.0 1023.0 0.0
26/02:00am 11.6 8.6 7.7 77 1.9 NNE 13 13 7 7 1023.1 1023.1 0.0
26/01:30am 12.8 10.0 5.2 60 3.5 ESE 9 13 5 7 1023.0 1023.0 0.0
26/01:00am 12.4 10.0 5.1 61 3.4 SSW 7 9 4 5 1023.3 1023.3 0.0
26/12:30am 12.4 8.8 4.9 60 3.4 N 13 15 7 8 1023.3 1023.3 0.0
26/12:00am 11.7 8.8 4.7 62 3.2 NNE 9 11 5 6 1022.8 1022.8 0.0
 
Date/Time
CST
Temp
°C
App
Temp
°C
Dew
Point
°C
Rel
Hum
%
Delta-T
°C
Wind Press
QNH
hPa
Press
MSL
hPa
Rain since
9am
mm
Dir  Spd
km/h
Gust
km/h
Spd
kts
Gust
kts
25/11:30pm 11.4 8.1 4.8 64 3.0 N 11 13 6 7 1022.5 1022.5 0.0
25/11:00pm 11.0 8.1 4.5 64 2.9 SE 9 11 5 6 1023.2 1023.2 0.0
25/10:30pm 11.9 9.0 4.6 61 3.3 N 9 11 5 6 1022.9 1022.9 0.0
25/10:00pm 12.8 9.2 5.2 60 3.5 N 13 17 7 9 1022.7 1022.7 0.0
25/09:30pm 12.8 8.9 5.2 60 3.5 N 15 17 8 9 1022.6 1022.6 0.0
25/09:00pm 12.5 8.6 5.2 61 3.4 N 15 17 8 9 1022.5 1022.5 0.0
25/08:30pm 12.6 9.0 5.1 60 3.5 NNE 13 15 7 8 1022.7 1022.7 0.0
25/08:00pm 13.7 9.4 5.3 57 3.9 ESE 17 20 9 11 1022.2 1022.2 0.0
25/07:30pm 14.4 10.2 5.5 55 4.2 N 17 20 9 11 1022.1 1022.1 0.0
25/07:00pm 15.5 11.4 6.0 53 4.6 N 17 22 9 12 1021.9 1021.9 0.0
25/06:30pm 16.2 11.2 6.3 52 4.8 N 22 30 12 16 1021.3 1021.3 0.0

Other Formats:

Comma delimited format used in spreadsheet applications
http://www.bom.gov.au/fwo/IDS60801/IDS60801.95480.axf

JavaScript Object Notation format (JSON) in row-major order
http://www.bom.gov.au/fwo/IDS60801/IDS60801.95480.json